Time;durP1;ratioP1;P1;durP2;ratioP2;P2;SDS_P1;SDS_P2;PMS_P1;PMS_P2;Temp;Humidity;BMP_temperature;BMP_pressure;BME280_temperature;BME280_humidity;BME280_pressure;Samples;Min_cycle;Max_cycle;Signal;HPM_P1;HPM_P2
2021/12/05 00:18:39;;;;;;;24.92;14.45;;;;;;;2.25;63.18;98689.34;2122572;83;27640;-59
2021/12/05 00:21:41;;;;;;;26.02;14.07;;;;;;;2.25;63.24;98677.90;2117554;83;29727;-77
2021/12/05 00:24:42;;;;;;;23.98;13.68;;;;;;;2.22;63.17;98676.73;2096397;83;32307;-62
2021/12/05 00:27:52;;;;;;;25.67;15.03;;;;;;;2.19;63.20;98681.66;2124900;83;33196;-63
2021/12/05 00:31:18;;;;;;;28.57;13.43;;;;;;;2.20;63.17;98690.47;2123553;83;29476;-59
2021/12/05 01:10:50;;;;;;;26.10;14.45;;;;;;;2.35;62.85;98723.30;2015855;86;28617;-59
2021/12/05 01:13:39;;;;;;;31.65;15.40;;;;;;;2.34;62.81;98722.45;2001150;86;32323;-60
2021/12/05 01:16:40;;;;;;;28.67;15.65;;;;;;;2.35;62.74;98710.09;2034541;86;32987;-60
2021/12/05 01:19:42;;;;;;;29.67;15.28;;;;;;;2.32;62.74;98716.37;2035299;84;29514;-61
2021/12/05 01:23:01;;;;;;;32.25;16.80;;;;;;;2.30;62.66;98712.08;2121167;83;27618;-60
2021/12/05 01:26:11;;;;;;;31.42;15.72;;;;;;;2.27;62.81;98712.60;2121060;83;30101;-60
2021/12/05 01:29:24;;;;;;;29.02;15.95;;;;;;;2.24;62.89;98704.80;2145456;83;31955;-60
2021/12/05 01:32:42;;;;;;;28.10;16.27;;;;;;;2.22;62.95;98709.76;2116539;84;34211;-59
2021/12/05 01:45:30;;;;;;;26.87;15.83;;;;;;;2.08;63.68;98718.23;2120677;83;31070;-65
2021/12/05 01:48:33;;;;;;;30.52;16.82;;;;;;;2.06;63.76;98718.31;2082803;85;33038;-65
2021/12/05 01:55:05;;;;;;;30.55;17.00;;;;;;;2.06;64.25;98711.70;2106467;83;27761;-68
2021/12/05 02:11:17;;;;;;;33.00;18.05;;;;;;;2.08;65.41;98710.31;2099176;84;27771;-67
2021/12/05 02:31:19;;;;;;;39.35;22.55;;;;;;;2.08;66.23;98712.95;2068907;86;28703;-67
2021/12/05 02:34:23;;;;;;;39.75;22.58;;;;;;;2.06;66.41;98720.95;2105147;84;31064;-84
2021/12/05 02:43:37;;;;;;;42.48;23.73;;;;;;;1.99;67.34;98722.11;2232088;79;27789;-68
2021/12/05 02:46:39;;;;;;;40.52;23.57;;;;;;;1.92;67.48;98718.86;2231648;79;28641;-69
2021/12/05 02:49:46;;;;;;;40.60;22.85;;;;;;;1.89;67.64;98724.73;2231600;79;31123;-74
2021/12/05 02:52:49;;;;;;;;;;;;;;;1.80;67.93;98721.52;2234503;79;34030;-74
2021/12/05 02:55:51;;;;;;;42.43;23.50;;;;;;;1.75;68.13;98725.26;2232035;79;29096;-77
2021/12/05 02:58:58;;;;;;;40.35;22.73;;;;;;;1.72;68.38;98728.02;2232296;79;27690;-67
2021/12/05 03:02:05;;;;;;;40.15;23.75;;;;;;;1.71;68.54;98724.97;2231724;79;28688;-71
2021/12/05 03:05:05;;;;;;;;;;;;;;;1.72;68.79;98723.61;2219722;79;31202;-71
2021/12/05 03:08:06;;;;;;;43.60;23.60;;;;;;;1.72;68.91;98726.25;2232158;79;33327;-69
2021/12/05 03:11:09;;;;;;;38.78;21.77;;;;;;;1.69;69.04;98727.69;2231715;79;30425;-71
2021/12/05 03:14:11;;;;;;;40.48;21.87;;;;;;;1.69;69.39;98723.72;2232200;79;28205;-67
2021/12/05 03:17:14;;;;;;;40.30;22.82;;;;;;;1.68;69.32;98731.23;2232165;79;28653;-70
2021/12/05 03:20:17;;;;;;;39.20;22.93;;;;;;;1.67;69.62;98729.05;2232225;79;31049;-77
2021/12/05 03:23:19;;;;;;;40.65;22.85;;;;;;;1.65;69.72;98732.67;2231979;78;33019;-69
2021/12/05 03:26:26;;;;;;;38.55;22.25;;;;;;;1.62;69.85;98727.50;2232212;79;30170;-72
2021/12/05 03:29:28;;;;;;;38.80;23.05;;;;;;;1.58;69.90;98739.97;2232603;79;27675;-70
2021/12/05 03:32:29;;;;;;;36.98;23.32;;;;;;;1.59;70.04;98736.86;2232223;79;28627;-68
2021/12/05 03:35:32;;;;;;;36.05;22.27;;;;;;;1.61;70.13;98735.02;2232042;79;31146;-66
2021/12/05 03:38:35;;;;;;;37.85;22.73;;;;;;;1.64;70.27;98741.06;2207760;79;32974;-65
2021/12/05 03:41:39;;;;;;;38.45;23.30;;;;;;;1.68;70.40;98749.72;2231893;79;29315;-66
2021/12/05 03:44:40;;;;;;;36.73;21.42;;;;;;;1.73;70.43;98754.81;2231964;79;27604;-66
2021/12/05 03:47:42;;;;;;;38.35;22.87;;;;;;;1.75;70.50;98756.94;2232106;79;29808;-69
2021/12/05 03:50:45;;;;;;;37.73;21.93;;;;;;;1.76;70.57;98754.70;2232200;79;31036;-67
2021/12/05 03:53:48;;;;;;;36.23;22.37;;;;;;;1.76;70.50;98753.38;2232135;79;33749;-72
2021/12/05 03:56:50;;;;;;;37.58;21.93;;;;;;;1.76;70.59;98753.38;2232088;79;29324;-66
2021/12/05 03:59:52;;;;;;;33.98;21.65;;;;;;;1.77;70.77;98759.06;2232563;79;27613;-76
2021/12/05 04:02:57;;;;;;;34.33;21.35;;;;;;;1.77;70.83;98755.10;2232136;79;28602;-66
2021/12/05 04:06:00;;;;;;;32.28;20.88;;;;;;;1.78;70.82;98755.03;2203257;79;31828;-65
2021/12/05 04:09:07;;;;;;;32.48;20.40;;;;;;;1.78;70.99;98757.67;2231748;79;33994;-65
2021/12/05 04:12:10;;;;;;;34.35;23.85;;;;;;;1.79;70.94;98759.87;2232301;79;29331;-66
2021/12/05 04:15:14;;;;;;;30.82;20.80;;;;;;;1.80;71.00;98761.12;2232262;79;27667;-65
2021/12/05 04:18:15;;;;;;;32.35;21.68;;;;;;;1.79;71.10;98758.08;2232282;79;28653;-65
2021/12/05 04:21:18;;;;;;;33.10;21.05;;;;;;;1.78;71.17;98761.63;2232347;79;30509;-66
2021/12/05 04:24:21;;;;;;;37.78;22.32;;;;;;;1.77;71.18;98767.83;2231749;79;32944;-66
2021/12/05 04:27:23;;;;;;;34.08;21.20;;;;;;;1.78;71.27;98766.06;2232298;79;29334;-71
2021/12/05 04:30:25;;;;;;;36.00;22.50;;;;;;;1.76;71.27;98770.55;2232366;79;27617;-64
2021/12/05 04:33:27;;;;;;;32.38;21.50;;;;;;;1.76;71.36;98768.75;2232045;78;28632;-67
2021/12/05 04:36:30;;;;;;;38.17;23.02;;;;;;;1.78;71.42;98773.98;2232345;79;30908;-67
2021/12/05 04:39:31;;;;;;;37.88;24.40;;;;;;;1.81;71.50;98779.16;2231775;79;33244;-72
2021/12/05 04:42:34;;;;;;;37.93;24.27;;;;;;;1.77;71.45;98782.83;2231805;78;30109;-69
2021/12/05 04:45:37;;;;;;;42.85;25.70;;;;;;;1.77;71.55;98778.39;2232233;78;27703;-65
2021/12/05 04:48:40;;;;;;;36.93;23.65;;;;;;;1.76;71.58;98786.38;2205240;79;28642;-71
2021/12/05 04:51:44;;;;;;;40.43;25.45;;;;;;;1.76;71.65;98785.91;2232051;79;31021;-67
2021/12/05 04:54:46;;;;;;;41.53;24.65;;;;;;;1.76;71.68;98798.27;2205124;79;32939;-68
2021/12/05 04:57:48;;;;;;;38.88;25.12;;;;;;;1.74;71.77;98787.74;2230021;79;30136;-68
2021/12/05 05:00:51;;;;;;;38.95;24.23;;;;;;;1.73;71.78;98797.93;2232218;79;28233;-66
2021/12/05 05:03:54;;;;;;;39.35;23.95;;;;;;;1.71;71.85;98805.48;2232584;79;28651;-64
2021/12/05 05:07:01;;;;;;;37.75;23.90;;;;;;;1.73;71.96;98811.13;2232133;79;31812;-65
2021/12/05 05:10:11;;;;;;;38.15;23.87;;;;;;;1.73;72.03;98815.09;2231678;79;33913;-70
2021/12/05 05:13:13;;;;;;;35.80;22.10;;;;;;;1.73;72.07;98817.73;2231915;79;29483;-69
2021/12/05 05:16:16;;;;;;;38.08;22.50;;;;;;;1.73;72.11;98814.22;2232103;79;27560;-67
2021/12/05 05:19:18;;;;;;;33.98;21.77;;;;;;;1.75;72.21;98815.87;2232137;79;29521;-67
2021/12/05 05:29:21;;;;;;;33.28;21.23;;;;;;;1.76;72.25;98825.51;2232237;79;29822;-83
2021/12/05 05:48:42;;;;;;;34.05;21.17;;;;;;;1.75;72.55;98842.27;2223821;79;27857;-65
2021/12/05 05:51:40;;;;;;;34.95;22.48;;;;;;;1.76;72.63;98849.74;2227523;79;28647;-65
2021/12/05 05:54:45;;;;;;;30.65;21.02;;;;;;;1.77;72.69;98852.79;2228133;79;31050;-70
2021/12/05 06:00:58;;;;;;;32.65;21.15;;;;;;;1.78;72.83;98850.08;2228373;79;29316;-66
2021/12/05 06:03:54;;;;;;;30.17;20.23;;;;;;;1.74;72.68;98850.25;2227443;79;27782;-67
2021/12/05 06:06:56;;;;;;;32.10;21.68;;;;;;;1.74;72.73;98852.89;2227773;79;29420;-67
2021/12/05 06:09:58;;;;;;;32.63;22.85;;;;;;;1.74;72.87;98853.74;2228162;79;31017;-66
2021/12/05 06:13:00;;;;;;;40.73;22.15;;;;;;;1.79;72.91;98871.61;2228165;79;32932;-67
2021/12/05 06:16:03;;;;;;;32.75;22.85;;;;;;;1.79;72.93;98870.28;2228116;79;29328;-68
2021/12/05 06:19:04;;;;;;;37.35;22.93;;;;;;;1.80;72.98;98876.45;2228082;79;28110;-68
2021/12/05 06:22:09;;;;;;;33.50;22.73;;;;;;;1.81;72.97;98882.13;2220540;79;28641;-63
2021/12/05 06:25:14;;;;;;;32.90;21.68;;;;;;;1.85;73.05;98882.39;2228046;79;30937;-64
2021/12/05 06:28:15;;;;;;;27.55;16.95;;;;;;;1.85;73.00;98878.44;2228181;79;33825;-69
2021/12/05 06:38:28;;;;;;;32.55;21.10;;;;;;;1.86;73.05;98889.40;2196034;79;29096;-80
2021/12/05 06:41:34;;;;;;;;;;;;;;;1.87;73.08;98895.56;2220840;79;30602;-82
2021/12/05 06:47:44;;;;;;;33.73;22.42;;;;;;;1.91;73.22;98902.43;2187687;81;29506;-73
2021/12/05 06:50:46;;;;;;;38.55;23.77;;;;;;;1.95;73.28;98899.64;2119042;84;27755;-67
2021/12/05 06:53:48;;;;;;;31.52;22.15;;;;;;;1.94;73.15;98899.23;2174503;81;29483;-70
2021/12/05 06:56:49;;;;;;;36.70;23.15;;;;;;;1.94;73.23;98904.52;2155077;82;31816;-65
2021/12/05 06:59:52;;;;;;;32.23;22.40;;;;;;;1.98;73.26;98906.58;2174425;81;33162;-64
2021/12/05 07:02:54;;;;;;;34.08;22.52;;;;;;;2.01;73.31;98905.15;2155045;82;29843;-67
2021/12/05 07:06:09;;;;;;;37.25;23.90;;;;;;;2.04;73.17;98909.45;2174655;81;27627;-69
2021/12/05 07:09:09;;;;;;;32.85;21.20;;;;;;;2.06;73.27;98911.13;2152405;82;28682;-66
2021/12/05 07:21:40;;;;;;;32.63;21.30;;;;;;;2.22;73.28;98919.80;2160699;82;27773;-67
2021/12/05 07:24:47;;;;;;;29.52;20.35;;;;;;;2.25;73.24;98928.47;2168865;82;28730;-69
2021/12/05 07:40:46;;;;;;;32.67;22.70;;;;;;;2.39;73.12;98931.03;2110415;83;29445;-68
2021/12/05 07:43:49;;;;;;;35.03;22.40;;;;;;;2.40;73.12;98936.25;2124468;83;31763;-64
2021/12/05 07:46:50;;;;;;;37.17;23.73;;;;;;;2.43;73.07;98935.30;2122646;83;32972;-68
2021/12/05 07:49:53;;;;;;;34.95;22.75;;;;;;;2.45;73.09;98941.83;2124230;83;30197;-69
2021/12/05 07:53:04;;;;;;;29.90;21.77;;;;;;;2.47;73.13;98943.95;2126394;83;27682;-72
2021/12/05 07:56:08;;;;;;;31.93;22.52;;;;;;;2.50;73.13;98943.84;2169384;81;28753;-68
2021/12/05 07:59:28;;;;;;;31.17;20.70;;;;;;;2.55;73.13;98957.28;2172966;80;30536;-67
2021/12/05 08:15:45;;;;;;;29.98;20.55;;;;;;;2.80;73.17;98955.46;2108124;84;31867;-75
2021/12/05 08:18:43;;;;;;;29.32;20.60;;;;;;;2.82;73.02;98954.95;2069140;85;33924;-74
2021/12/05 08:21:46;;;;;;;31.23;21.95;;;;;;;2.83;73.12;98961.95;2089697;84;29379;-71
2021/12/05 08:24:49;;;;;;;30.17;20.95;;;;;;;2.85;72.99;98964.93;2108448;84;27761;-63
2021/12/05 08:27:56;;;;;;;35.33;22.32;;;;;;;2.89;73.03;98963.05;2108999;84;29059;-61
2021/12/05 08:31:08;;;;;;;32.50;23.32;;;;;;;2.97;73.02;98967.55;2108972;83;30945;-59
2021/12/05 10:03:01;;;;;;;45.58;29.57;;;;;;;3.66;73.84;98993.41;2149675;81;27851;-64
2021/12/05 10:15:54;;;;;;;49.38;30.88;;;;;;;3.59;73.97;98990.64;2174430;79;29373;-68
2021/12/05 10:35:59;;;;;;;58.75;35.68;;;;;;;3.49;74.28;99017.97;2060932;85;27744;-62
2021/12/05 10:38:54;;;;;;;54.67;33.67;;;;;;;3.48;74.32;99021.54;2056071;85;28850;-71
2021/12/05 10:42:14;;;;;;;55.03;35.83;;;;;;;3.48;74.34;99024.19;2059870;85;31049;-69
2021/12/05 10:45:09;;;;;;;60.73;36.58;;;;;;;3.46;74.50;99022.94;2035531;86;33397;-66
2021/12/05 10:48:21;;;;;;;60.65;36.98;;;;;;;3.48;74.55;99029.48;2080318;84;29492;-58
2021/12/05 10:51:27;;;;;;;62.65;37.60;;;;;;;3.48;74.59;99031.65;2035744;86;27797;-68
2021/12/05 10:54:29;;;;;;;68.30;38.75;;;;;;;3.49;74.63;99035.17;2074465;84;28660;-60
2021/12/05 10:57:31;;;;;;;65.95;38.00;;;;;;;3.50;74.64;99034.25;2081617;84;32253;-66
2021/12/05 11:00:33;;;;;;;59.90;35.52;;;;;;;3.52;74.70;99033.73;2087246;81;33014;-64
2021/12/05 11:03:35;;;;;;;68.22;38.35;;;;;;;3.52;74.72;99040.35;2155591;81;29876;-61
2021/12/05 11:06:52;;;;;;;58.58;36.75;;;;;;;3.51;74.69;99039.95;2124755;82;27735;-67
2021/12/05 11:09:59;;;;;;;66.17;36.95;;;;;;;3.51;74.80;99035.98;2112853;82;29670;-61
2021/12/05 11:12:59;;;;;;;59.88;37.08;;;;;;;3.52;74.89;99032.41;2192741;80;31735;-64
2021/12/05 11:16:01;;;;;;;72.58;39.27;;;;;;;3.54;75.00;99035.86;2165461;79;34194;-58
2021/12/05 11:19:27;;;;;;;91.85;46.00;;;;;;;3.58;74.97;99031.29;2141536;82;29703;-60
2021/12/05 11:22:37;;;;;;;109.63;53.68;;;;;;;3.60;75.02;99036.06;2177937;81;27760;-60
2021/12/05 11:25:42;;;;;;;105.55;51.77;;;;;;;3.62;74.98;99038.19;2153952;81;30031;-62
2021/12/05 11:28:55;;;;;;;104.67;53.63;;;;;;;3.64;75.07;99042.96;2161388;81;31788;-70
2021/12/05 11:32:11;;;;;;;99.67;50.50;;;;;;;3.62;75.12;99043.00;2115693;82;34148;-72
2021/12/05 11:35:20;;;;;;;108.95;52.85;;;;;;;3.65;75.19;99040.23;2171188;81;29343;-73
2021/12/05 11:38:28;;;;;;;114.37;53.63;;;;;;;3.64;75.15;99042.48;2183388;80;27671;-72
2021/12/05 11:41:30;;;;;;;124.85;58.45;;;;;;;3.65;75.22;99043.33;2179097;81;28689;-68
2021/12/05 11:44:32;;;;;;;126.58;57.50;;;;;;;3.65;75.24;99053.48;2203978;79;32211;-66
2021/12/05 11:47:37;;;;;;;104.97;50.20;;;;;;;3.65;75.30;99061.42;2186162;79;33931;-66
2021/12/05 11:50:39;;;;;;;83.15;45.38;;;;;;;3.65;75.29;99068.05;2186877;79;29375;-62
2021/12/05 11:53:45;;;;;;;81.55;42.53;;;;;;;3.65;75.28;99069.81;2186332;79;27669;-72
2021/12/05 11:56:58;;;;;;;71.57;39.58;;;;;;;3.65;75.29;99068.48;2185149;79;29047;-69
2021/12/05 12:00:08;;;;;;;64.97;40.98;;;;;;;3.64;75.38;99071.62;2231001;78;32522;-74
2021/12/05 12:03:10;;;;;;;73.62;40.95;;;;;;;3.65;75.52;99065.84;2231031;78;33943;-62
2021/12/05 12:06:17;;;;;;;87.95;47.78;;;;;;;3.64;75.53;99057.05;2222961;78;30648;-59
2021/12/05 12:09:21;;;;;;;83.10;49.77;;;;;;;3.63;75.36;99057.13;2231890;78;27984;-72
2021/12/05 12:12:23;;;;;;;88.82;47.90;;;;;;;3.59;75.45;99062.98;2231074;78;29697;-58
2021/12/05 12:15:28;;;;;;;80.03;50.58;;;;;;;3.58;75.60;99061.74;2232770;78;30857;-62
2021/12/05 12:18:33;;;;;;;91.50;49.70;;;;;;;3.60;75.66;99067.84;2232477;78;32964;-59
2021/12/05 12:21:41;;;;;;;;;;;;;;;3.60;75.66;99073.98;2238426;78;29417;-58
2021/12/05 12:24:40;;;;;;;96.65;57.75;;;;;;;3.59;75.64;99072.26;2157984;80;27732;-58
2021/12/05 12:27:44;;;;;;;102.62;58.90;;;;;;;3.57;75.68;99070.61;2199611;79;29920;-61
2021/12/05 12:30:59;;;;;;;102.70;59.98;;;;;;;3.56;75.70;99072.86;2203358;79;31010;-64
2021/12/05 12:34:06;;;;;;;99.07;55.65;;;;;;;3.56;75.81;99088.73;2207081;78;32936;-58
2021/12/05 12:37:12;;;;;;;99.47;57.15;;;;;;;3.53;75.69;99092.83;2208715;79;44641;-75
2021/12/05 12:40:14;;;;;;;94.53;54.97;;;;;;;3.50;75.60;99090.70;2186725;79;27650;-73
2021/12/05 12:43:41;;;;;;;98.50;55.83;;;;;;;3.48;75.76;99089.05;2188491;79;29636;-67
2021/12/05 12:46:50;;;;;;;93.22;53.15;;;;;;;3.49;75.88;99093.42;2193539;79;32327;-66
2021/12/05 12:49:50;;;;;;;94.80;52.90;;;;;;;3.48;75.87;99098.32;2209953;78;33787;-62
2021/12/05 12:53:06;;;;;;;122.92;69.45;;;;;;;3.49;75.86;99094.27;2231947;78;30520;-62
2021/12/05 12:56:18;;;;;;;161.52;88.27;;;;;;;3.48;75.97;99092.55;2223572;78;28358;-59
2021/12/05 12:59:17;;;;;;;146.77;78.50;;;;;;;3.49;75.97;99100.89;2223993;78;28929;-55
2021/12/05 13:02:31;;;;;;;114.62;61.15;;;;;;;3.48;75.97;99096.52;2230670;78;32143;-58
2021/12/05 13:05:53;;;;;;;180.87;103.25;;;;;;;3.48;76.01;99094.34;2230756;78;33065;-59
2021/12/05 13:12:17;;;;;;;111.00;64.82;;;;;;;3.48;76.07;99099.64;2239985;78;27608;-57
2021/12/05 13:15:36;;;;;;;105.25;59.73;;;;;;;3.46;76.04;99103.69;2190141;78;29691;-65
2021/12/05 13:18:40;;;;;;;104.92;59.65;;;;;;;3.45;76.04;99098.44;2226378;78;32211;-58
2021/12/05 13:21:45;;;;;;;101.47;58.35;;;;;;;3.43;76.07;99099.83;2232051;78;33001;-62
2021/12/05 13:24:47;;;;;;;108.83;60.45;;;;;;;3.42;76.08;99094.13;2226109;78;29323;-54
2021/12/05 13:27:49;;;;;;;113.37;63.20;;;;;;;3.40;76.17;99098.62;2202822;78;27773;-59
2021/12/05 13:30:51;;;;;;;122.15;69.45;;;;;;;3.39;76.14;99107.97;2234775;78;30025;-61
2021/12/05 13:34:24;;;;;;;134.27;75.75;;;;;;;3.37;76.14;99108.48;2237299;78;31720;-60
2021/12/05 13:37:37;;;;;;;133.18;78.60;;;;;;;3.34;76.12;99106.80;2231352;78;33018;-59
2021/12/05 13:40:40;;;;;;;135.90;83.45;;;;;;;3.31;76.24;99107.79;2231342;78;29703;-57
2021/12/05 13:43:45;;;;;;;149.30;85.53;;;;;;;3.30;76.33;99117.13;2231519;78;27745;-58
2021/12/05 13:46:51;;;;;;;137.47;80.55;;;;;;;3.29;76.42;99110.95;2221708;78;28726;-58
2021/12/05 13:49:50;;;;;;;136.47;79.30;;;;;;;3.28;76.36;99113.67;2239822;78;30860;-61
2021/12/05 13:53:06;;;;;;;149.95;85.72;;;;;;;3.26;76.39;99116.36;2241986;78;34184;-59
2021/12/05 13:56:11;;;;;;;153.72;90.15;;;;;;;3.24;76.33;99116.87;2229240;78;29691;-65
2021/12/05 13:59:12;;;;;;;200.03;106.35;;;;;;;3.21;76.39;99109.53;2238398;78;27560;-59
2021/12/05 14:02:14;;;;;;;189.43;106.00;;;;;;;3.18;76.42;99099.93;2236591;78;28808;-58
2021/12/05 14:05:29;;;;;;;198.40;106.20;;;;;;;3.15;76.49;99108.83;2159221;79;32090;-59
2021/12/05 14:08:31;;;;;;;178.15;103.07;;;;;;;3.15;76.50;99106.66;2230799;78;33653;-58
2021/12/05 14:11:35;;;;;;;174.02;98.10;;;;;;;3.12;76.64;99114.27;2232446;78;29634;-63
2021/12/05 14:14:48;;;;;;;169.72;93.10;;;;;;;3.13;76.77;99124.37;2232918;78;27533;-58
2021/12/05 14:17:51;;;;;;;164.97;90.75;;;;;;;3.12;76.76;99125.30;2236174;78;29419;-57
2021/12/05 14:20:53;;;;;;;181.70;100.18;;;;;;;3.11;76.75;99123.13;2229569;78;31073;-58
2021/12/05 14:24:00;;;;;;;184.55;96.97;;;;;;;3.11;76.75;99124.45;2235631;78;29769;-59
2021/12/05 14:27:05;;;;;;;;;;;;;;;3.11;76.73;99130.19;2233071;78;29641;-65
2021/12/05 14:30:12;;;;;;;173.10;93.90;;;;;;;3.07;76.82;99138.70;2231295;78;27667;-78
2021/12/05 14:33:14;;;;;;;168.35;90.62;;;;;;;3.03;76.95;99141.94;2232208;78;28723;-63
2021/12/05 14:36:22;;;;;;;152.30;86.17;;;;;;;3.02;77.05;99148.59;2240842;78;31082;-69
2021/12/05 14:39:35;;;;;;;153.15;83.85;;;;;;;3.00;77.01;99155.72;2231546;78;32937;-70
2021/12/05 14:42:44;;;;;;;146.00;82.37;;;;;;;3.00;77.12;99157.92;2230964;78;30471;-71
2021/12/05 14:45:46;;;;;;;151.27;82.00;;;;;;;3.00;77.13;99154.39;2232390;78;27772;-65
2021/12/05 14:48:55;;;;;;;144.10;79.07;;;;;;;3.00;77.08;99159.69;2237702;78;28729;-72
2021/12/05 14:51:57;;;;;;;155.75;80.50;;;;;;;3.00;77.13;99161.02;2233930;78;31084;-67
2021/12/05 14:55:02;;;;;;;133.47;74.95;;;;;;;2.99;77.20;99162.81;2239673;78;33732;-63
2021/12/05 14:58:10;;;;;;;128.70;73.30;;;;;;;3.00;77.25;99171.59;2231819;78;29446;-68
2021/12/05 15:01:12;;;;;;;127.17;69.65;;;;;;;3.01;77.22;99179.49;2203506;78;27816;-68
2021/12/05 15:04:22;;;;;;;133.03;69.60;;;;;;;3.01;77.17;99186.55;2231807;78;29102;-66
2021/12/05 15:07:26;;;;;;;116.70;67.05;;;;;;;3.00;77.23;99184.82;2224530;78;31020;-63
2021/12/05 15:10:28;;;;;;;115.72;66.37;;;;;;;3.00;77.27;99181.73;2231415;78;33108;-64
2021/12/05 15:13:31;;;;;;;120.60;66.77;;;;;;;3.00;77.25;99184.82;2231696;78;30484;-66
2021/12/05 15:16:33;;;;;;;122.05;66.75;;;;;;;3.00;77.37;99188.34;2233706;78;28030;-71
2021/12/05 15:19:40;;;;;;;126.53;67.75;;;;;;;3.02;77.36;99190.48;2232686;78;28788;-63
2021/12/05 15:22:46;;;;;;;132.27;68.22;;;;;;;3.02;77.40;99190.92;2232530;78;31195;-65
2021/12/05 15:25:48;;;;;;;122.07;65.95;;;;;;;3.04;77.45;99189.09;2234947;78;32941;-71
2021/12/05 15:28:50;;;;;;;118.85;67.42;;;;;;;3.06;77.50;99193.87;2233418;78;30514;-66
2021/12/05 15:31:52;;;;;;;134.67;73.33;;;;;;;3.07;77.42;99190.30;2196264;78;27803;-66
2021/12/05 15:34:58;;;;;;;128.42;67.17;;;;;;;3.06;77.39;99196.52;2232001;78;29044;-70
2021/12/05 15:38:10;;;;;;;116.45;65.20;;;;;;;3.06;77.41;99198.31;2234939;78;31030;-70
2021/12/05 15:41:15;;;;;;;118.10;65.62;;;;;;;3.07;77.43;99196.03;2230702;78;32990;-66
2021/12/05 15:44:28;;;;;;;91.47;53.17;;;;;;;3.05;77.44;99204.05;2225180;78;30450;-67
2021/12/05 15:47:32;;;;;;;61.15;33.38;;;;;;;3.04;77.44;99204.52;2229996;78;27746;-70
2021/12/05 15:50:38;;;;;;;80.70;45.23;;;;;;;3.04;77.50;99207.16;2229901;78;28657;-68
2021/12/05 15:53:39;;;;;;;;;;;;;;;3.04;77.55;99207.16;2232247;78;31017;-71
2021/12/05 15:56:42;;;;;;;72.90;40.10;;;;;;;3.03;77.53;99203.23;2231107;78;32349;-69
2021/12/05 15:59:46;;;;;;;78.65;41.45;;;;;;;3.01;77.64;99209.92;2225403;78;30043;-67
2021/12/05 16:02:48;;;;;;;77.15;43.80;;;;;;;3.01;77.64;99209.92;2221165;78;27689;-66
2021/12/05 16:05:58;;;;;;;79.58;43.28;;;;;;;3.02;77.63;99216.94;2202395;78;29309;-62
2021/12/05 16:09:11;;;;;;;76.62;43.92;;;;;;;3.02;77.64;99222.23;2224710;78;32219;-64
2021/12/05 16:12:19;;;;;;;69.35;39.78;;;;;;;3.01;77.65;99211.23;2213487;78;34229;-65
2021/12/05 16:15:26;;;;;;;71.75;39.92;;;;;;;2.98;77.59;99213.98;2226638;78;29382;-66
2021/12/05 16:18:34;;;;;;;69.60;38.30;;;;;;;2.99;77.68;99221.02;2224217;78;27612;-62
2021/12/05 16:21:38;;;;;;;69.45;38.08;;;;;;;3.00;77.69;99232.44;2231441;78;29916;-63
2021/12/05 16:24:40;;;;;;;61.20;35.13;;;;;;;2.97;77.63;99235.22;2243898;78;31924;-62
2021/12/05 16:27:55;;;;;;;62.35;34.70;;;;;;;2.96;77.72;99231.70;2228931;78;33375;-64
2021/12/05 16:31:17;;;;;;;59.15;32.28;;;;;;;2.97;77.71;99229.94;2227667;78;33823;-65
2021/12/05 16:34:26;;;;;;;67.00;39.00;;;;;;;2.91;77.69;99223.05;2225625;78;27684;-64
2021/12/05 16:37:30;;;;;;;76.67;39.83;;;;;;;2.89;77.66;99236.34;2224591;78;29973;-65
2021/12/05 16:41:09;;;;;;;74.97;42.70;;;;;;;2.90;77.81;99241.16;2236136;78;31824;-65
2021/12/05 16:44:15;;;;;;;66.82;38.33;;;;;;;2.92;77.97;99242.45;2230927;78;33348;-65
2021/12/05 16:47:20;;;;;;;67.50;37.30;;;;;;;2.93;77.92;99252.96;2232565;78;28751;-65
2021/12/05 16:50:22;;;;;;;72.12;39.60;;;;;;;2.92;77.85;99251.23;2228988;79;27671;-61
2021/12/05 16:53:34;;;;;;;79.03;44.10;;;;;;;2.92;77.90;99250.39;2227219;79;28567;-67
2021/12/05 16:56:51;;;;;;;83.60;46.90;;;;;;;2.90;77.79;99251.74;2227115;79;31391;-69
2021/12/05 16:59:56;;;;;;;128.93;74.30;;;;;;;2.87;77.90;99259.81;2228228;79;33168;-65
2021/12/05 17:03:05;;;;;;;75.83;43.13;;;;;;;2.87;77.87;99265.10;2237115;79;30215;-65
2021/12/05 17:06:10;;;;;;;70.78;41.60;;;;;;;2.86;77.96;99272.16;2233980;79;27723;-66
2021/12/05 17:09:13;;;;;;;68.70;38.95;;;;;;;2.85;77.90;99277.52;2222768;78;28687;-68
2021/12/05 17:12:31;;;;;;;62.27;33.80;;;;;;;2.83;77.96;99282.84;2217111;79;32261;-65
2021/12/05 17:15:37;;;;;;;74.03;40.50;;;;;;;2.82;78.00;99281.11;2212815;79;34283;-68
2021/12/05 17:18:59;;;;;;;72.30;40.23;;;;;;;2.81;77.97;99291.75;2127961;82;28797;-66
2021/12/05 17:22:06;;;;;;;78.30;45.15;;;;;;;2.80;77.96;99300.16;2211844;80;27794;-81
2021/12/05 17:25:13;;;;;;;83.75;43.55;;;;;;;2.80;78.01;99305.45;2164173;81;27930;-65
2021/12/05 17:28:38;;;;;;;85.90;48.10;;;;;;;2.80;78.01;99309.42;2157769;82;31264;-67
2021/12/05 17:31:44;;;;;;;79.85;45.05;;;;;;;2.79;78.00;99312.98;2142175;81;33061;-69
2021/12/05 17:34:54;;;;;;;70.80;40.00;;;;;;;2.80;78.04;99311.18;2186877;79;29391;-63
2021/12/05 17:37:57;;;;;;;68.05;35.13;;;;;;;2.80;78.03;99317.35;2228308;79;27996;-69
2021/12/05 17:41:00;;;;;;;60.85;34.63;;;;;;;2.79;78.04;99322.23;2203454;79;28847;-68
2021/12/05 17:44:04;;;;;;;62.33;35.48;;;;;;;2.80;77.99;99320.00;2202031;79;30928;-69
2021/12/05 17:47:08;;;;;;;60.95;34.08;;;;;;;2.79;78.02;99317.38;2228936;79;32952;-72
2021/12/05 17:50:19;;;;;;;64.85;35.20;;;;;;;2.79;78.05;99318.27;2231656;78;28877;-70
2021/12/05 17:53:30;;;;;;;70.12;36.90;;;;;;;2.80;78.07;99320.44;2202464;78;27883;-72
2021/12/05 17:56:38;;;;;;;70.25;38.95;;;;;;;2.81;78.02;99312.91;2231746;79;28744;-70
2021/12/05 17:59:55;;;;;;;59.58;34.70;;;;;;;2.80;78.07;99307.21;2229438;79;32200;-69
2021/12/05 18:02:58;;;;;;;68.47;38.38;;;;;;;2.78;77.99;99315.22;2234087;78;33921;-69
2021/12/05 18:05:53;;;;;;;63.55;36.15;;;;;;;2.77;77.96;99309.95;2229565;79;30044;-71
2021/12/05 18:08:55;;;;;;;68.57;39.35;;;;;;;2.73;77.96;99312.70;2229989;79;27924;-65
2021/12/05 18:12:00;;;;;;;64.22;35.95;;;;;;;2.69;77.83;99311.09;2232074;79;29301;-70
2021/12/05 18:15:08;;;;;;;65.90;35.35;;;;;;;2.64;77.64;99314.81;2232032;78;31123;-65
2021/12/05 18:18:10;;;;;;;60.88;34.43;;;;;;;2.55;77.68;99318.15;2230783;79;32972;-66
2021/12/05 18:21:12;;;;;;;65.45;34.67;;;;;;;2.53;77.76;99322.62;2231912;79;29385;-65
2021/12/05 18:24:18;;;;;;;56.18;30.57;;;;;;;2.49;77.64;99327.59;2231603;79;27651;-67
2021/12/05 18:27:20;;;;;;;58.52;31.87;;;;;;;2.46;77.67;99330.36;2231809;79;28664;-65
2021/12/05 18:30:26;;;;;;;52.08;29.30;;;;;;;2.43;77.68;99325.16;2232122;79;30448;-66
2021/12/05 18:33:29;;;;;;;;;;;;;;;2.40;77.76;99335.83;2234378;79;32820;-66
2021/12/05 18:36:32;;;;;;;76.22;36.20;;;;;;;2.37;77.66;99339.88;2232005;78;29410;-68
2021/12/05 18:39:39;;;;;;;64.10;33.23;;;;;;;2.33;77.72;99351.45;2202380;79;27724;-67
2021/12/05 18:42:42;;;;;;;62.45;32.00;;;;;;;2.30;77.70;99355.55;2232028;79;28655;-67
2021/12/05 18:45:44;;;;;;;54.27;32.95;;;;;;;2.27;77.75;99362.65;2231688;78;31034;-66
2021/12/05 18:48:46;;;;;;;61.58;33.25;;;;;;;2.26;77.81;99364.88;2228444;79;33051;-66
2021/12/05 18:51:50;;;;;;;60.80;32.05;;;;;;;2.25;77.82;99375.48;2228834;79;29357;-64
2021/12/05 18:54:53;;;;;;;67.40;36.17;;;;;;;2.24;77.89;99385.64;2228092;79;28262;-69
2021/12/05 18:57:55;;;;;;;63.80;34.67;;;;;;;2.24;77.84;99390.92;2228331;79;29554;-68
2021/12/05 19:04:26;;;;;;;71.80;38.80;;;;;;;2.19;77.68;99395.03;2228165;79;33816;-75
2021/12/05 19:07:32;;;;;;;71.82;38.48;;;;;;;2.16;77.69;99399.08;2228236;79;29337;-68
2021/12/05 19:13:52;;;;;;;77.17;40.10;;;;;;;2.12;77.76;99409.36;2227913;79;28787;-66
2021/12/05 19:17:05;;;;;;;79.45;38.65;;;;;;;2.13;77.86;99414.58;2228375;79;31107;-67
2021/12/05 19:20:16;;;;;;;79.58;40.63;;;;;;;2.12;77.87;99411.52;2227982;79;34089;-68
2021/12/05 19:23:19;;;;;;;81.85;41.53;;;;;;;2.12;77.95;99423.89;2228429;79;29679;-67